Marbury, Maryland
Current Conditions -  °F | °C
As of 11:56 PM on Tuesday 21 Oct 2014 (Local Time) from KNYG Reporting Station
Broken Clouds Broken Clouds  
Wind Chill: 54°   Ceiling: 11000
Heat Index: 54°   Visibility: 10mi
Dew Point: 49°   Wind: 13mph
Humidity: 83%   Direction: 350°N
Pressure: 29.91"   Gusts: 24mph
Location:  38.56°N, 77.16°W
Report Text: KNYG 220356Z AUTO 35011G21KT 10SM BKN110 12/09 A2991 RMK AO2 SLP128 T01220094 $
Loading
Personal Weather Stations






























Interactive Weather Map
Tropical Storm Tracking
New forecast layout! Learn more

10-Day Weather Forecast

Advertisements
Track Severe Weather on mobile